createdAt,value
2022-11-19T00:01:13.523Z,12.03
2022-11-19T00:03:42.653Z,12.09
2022-11-19T00:06:12.120Z,11.86
2022-11-19T00:08:39.463Z,12.01
2022-11-19T00:11:09.502Z,11.90
2022-11-19T00:13:38.173Z,11.68
2022-11-19T00:16:15.047Z,11.73
2022-11-19T00:18:41.898Z,11.69
2022-11-19T00:21:10.998Z,11.68
2022-11-19T00:23:37.812Z,11.44
2022-11-19T00:26:10.358Z,11.88
2022-11-19T00:28:37.911Z,12.04
2022-11-19T00:31:14.518Z,12.32
2022-11-19T00:33:44.128Z,12.27
2022-11-19T00:36:13.477Z,12.30
2022-11-19T00:38:40.461Z,12.29
2022-11-19T00:41:07.784Z,12.20
2022-11-19T00:43:47.117Z,12.14
2022-11-19T00:46:21.355Z,12.21
2022-11-19T00:48:49.913Z,12.15
2022-11-19T00:51:18.306Z,12.37
2022-11-19T00:53:45.889Z,12.32
2022-11-19T00:56:16.087Z,12.29
2022-11-19T00:58:43.678Z,12.05
2022-11-19T01:01:11.256Z,12.17
2022-11-19T01:03:39.462Z,12.05
2022-11-19T01:06:06.818Z,12.15
2022-11-19T01:08:33.565Z,12.06
2022-11-19T01:11:11.597Z,11.93
2022-11-19T01:13:38.520Z,11.94
2022-11-19T01:16:09.000Z,12.06
2022-11-19T01:18:37.273Z,12.05
2022-11-19T01:21:05.309Z,12.02
2022-11-19T01:23:33.581Z,11.95
2022-11-19T01:26:01.075Z,12.06
2022-11-19T01:28:28.105Z,12.13
2022-11-19T01:30:54.702Z,11.96
2022-11-19T01:33:22.730Z,11.70
2022-11-19T01:36:00.233Z,12.00
2022-11-19T01:38:28.419Z,12.00
2022-11-19T01:40:56.237Z,12.02
2022-11-19T01:43:47.660Z,12.03
2022-11-19T01:46:18.105Z,12.14
2022-11-19T01:49:00.069Z,12.10
2022-11-19T01:51:34.602Z,11.89
2022-11-19T01:54:08.891Z,11.98
2022-11-19T01:56:35.853Z,12.04
2022-11-19T01:59:18.340Z,11.92
2022-11-19T02:01:46.124Z,11.96
2022-11-19T02:04:15.848Z,11.99
2022-11-19T02:06:44.658Z,11.93
2022-11-19T02:09:11.393Z,11.95
2022-11-19T02:12:09.095Z,11.87
2022-11-19T02:14:44.593Z,11.87
2022-11-19T02:17:31.232Z,11.58
2022-11-19T02:20:16.802Z,11.40
2022-11-19T02:23:02.322Z,11.54
2022-11-19T02:25:50.177Z,11.58
2022-11-19T02:28:31.901Z,11.49
2022-11-19T02:31:17.157Z,11.36
2022-11-19T02:34:09.156Z,11.46
2022-11-19T02:36:58.732Z,11.36
2022-11-19T02:39:39.837Z,11.25
2022-11-19T02:42:32.284Z,11.15
2022-11-19T02:45:03.017Z,11.05
2022-11-19T02:47:55.710Z,10.98
2022-11-19T02:50:28.160Z,10.89
2022-11-19T02:52:55.028Z,10.63
2022-11-19T02:55:23.316Z,10.64
2022-11-19T02:58:08.246Z,10.41
2022-11-19T03:01:04.185Z,10.45
2022-11-19T03:03:50.221Z,10.38
2022-11-19T03:06:20.887Z,10.33
2022-11-19T03:08:48.161Z,10.22
2022-11-19T03:11:29.900Z,10.14
2022-11-19T03:14:21.159Z,10.22
2022-11-19T03:17:21.632Z,10.09
2022-11-19T03:20:01.256Z,9.96
2022-11-19T03:23:06.794Z,10.17
2022-11-19T03:25:59.747Z,9.88
2022-11-19T03:28:36.065Z,10.12
2022-11-19T03:31:04.867Z,10.08
2022-11-19T03:33:40.258Z,10.05
2022-11-19T03:36:17.538Z,10.18
2022-11-19T03:38:49.881Z,10.19
2022-11-19T03:41:20.279Z,10.26
2022-11-19T03:43:52.094Z,10.17
2022-11-19T03:46:21.475Z,10.14
2022-11-19T03:48:51.541Z,10.13
2022-11-19T03:51:44.904Z,10.21
2022-11-19T03:54:11.807Z,10.23
2022-11-19T03:56:41.475Z,10.22
2022-11-19T03:59:10.291Z,10.21
2022-11-19T04:01:38.353Z,10.24
2022-11-19T04:04:24.030Z,10.16
2022-11-19T04:06:50.859Z,10.22
2022-11-19T04:09:17.829Z,10.18
2022-11-19T04:14:10.986Z,9.98
2022-11-19T04:16:38.701Z,10.06
2022-11-19T04:19:05.931Z,10.11
2022-11-19T04:21:32.561Z,10.02
2022-11-19T04:23:59.237Z,10.10
2022-11-19T04:26:25.976Z,10.09
2022-11-19T04:28:53.324Z,9.69
2022-11-19T04:31:20.055Z,9.94
2022-11-19T04:33:47.113Z,10.07
2022-11-19T04:36:14.005Z,10.07
2022-11-19T04:38:40.679Z,10.13
2022-11-19T04:41:07.498Z,10.17
2022-11-19T04:43:34.437Z,10.08
2022-11-19T04:46:01.136Z,10.11
2022-11-19T04:48:27.918Z,10.09
2022-11-19T04:50:54.671Z,9.88
2022-11-19T04:53:21.352Z,9.97
2022-11-19T04:55:47.974Z,10.10
2022-11-19T04:58:14.942Z,10.09
2022-11-19T05:00:41.566Z,10.07
2022-11-19T05:03:08.395Z,9.78
2022-11-19T05:05:35.246Z,9.86
2022-11-19T05:08:01.852Z,9.76
2022-11-19T05:10:28.593Z,9.93
2022-11-19T05:12:55.683Z,10.00
2022-11-19T05:15:22.318Z,10.06
2022-11-19T05:17:48.927Z,10.09
2022-11-19T05:20:15.961Z,10.02
2022-11-19T05:22:42.553Z,9.97
2022-11-19T05:25:09.611Z,9.84
2022-11-19T05:27:36.622Z,9.84
2022-11-19T05:30:04.531Z,9.84
2022-11-19T05:32:31.251Z,9.87
2022-11-19T05:34:58.065Z,9.86
2022-11-19T05:37:24.931Z,9.42
2022-11-19T05:39:51.787Z,9.50
2022-11-19T05:42:18.716Z,9.85
2022-11-19T05:44:45.458Z,9.85
2022-11-19T05:47:12.061Z,9.95
2022-11-19T05:49:38.737Z,9.90
2022-11-19T05:52:05.450Z,9.44
2022-11-19T05:54:32.341Z,9.40
2022-11-19T05:56:59.116Z,9.09
2022-11-19T05:59:25.869Z,9.14
2022-11-19T06:01:52.560Z,8.96
2022-11-19T06:04:19.442Z,9.19
2022-11-19T06:06:46.486Z,9.40
2022-11-19T06:09:13.517Z,9.49
2022-11-19T06:11:50.226Z,9.66
2022-11-19T06:14:22.262Z,9.60
2022-11-19T06:16:57.222Z,10.09
2022-11-19T06:19:24.819Z,10.93
2022-11-19T06:21:52.132Z,11.70
2022-11-19T06:24:19.712Z,12.31
2022-11-19T06:26:46.828Z,12.61
2022-11-19T06:29:14.707Z,12.49
2022-11-19T06:31:41.761Z,12.44
2022-11-19T06:34:08.739Z,12.21
2022-11-19T06:36:40.990Z,12.16
2022-11-19T06:39:10.008Z,12.17
2022-11-19T06:41:37.204Z,12.29
2022-11-19T06:44:04.425Z,12.23
2022-11-19T06:46:31.443Z,11.95
2022-11-19T06:48:58.619Z,12.31
2022-11-19T06:51:25.530Z,12.01
2022-11-19T06:53:52.139Z,11.55
2022-11-19T06:56:19.035Z,11.26
2022-11-19T06:58:45.694Z,11.09
2022-11-19T07:01:14.451Z,11.31
2022-11-19T07:03:41.689Z,11.34
2022-11-19T07:06:08.917Z,11.63
2022-11-19T07:08:37.405Z,11.78
2022-11-19T07:11:24.466Z,11.97
2022-11-19T07:13:57.954Z,12.20
2022-11-19T07:16:32.565Z,11.93
2022-11-19T07:19:00.816Z,12.45
2022-11-19T07:21:28.584Z,12.85
2022-11-19T07:24:00.287Z,13.06
2022-11-19T07:26:27.352Z,13.26
2022-11-19T07:28:54.506Z,13.46
2022-11-19T07:31:21.346Z,13.62
2022-11-19T07:33:48.018Z,13.48
2022-11-19T07:36:18.442Z,13.22
2022-11-19T07:38:46.543Z,12.97
2022-11-19T07:41:32.175Z,13.36
2022-11-19T07:43:58.854Z,13.68
2022-11-19T07:46:25.468Z,13.92
2022-11-19T07:48:54.374Z,13.77
2022-11-19T07:51:22.366Z,13.66
2022-11-19T07:53:49.661Z,13.67
2022-11-19T07:56:17.169Z,13.76
2022-11-19T07:58:44.266Z,13.99
2022-11-19T08:01:14.401Z,13.87
2022-11-19T08:03:46.204Z,14.38
2022-11-19T08:06:14.353Z,14.45
2022-11-19T08:08:41.514Z,14.47
2022-11-19T08:11:09.482Z,14.49
2022-11-19T08:13:36.894Z,14.58
2022-11-19T08:16:07.030Z,14.69
2022-11-19T08:18:33.821Z,15.08
2022-11-19T08:21:09.709Z,15.08
2022-11-19T08:23:37.763Z,14.87
2022-11-19T08:26:07.110Z,15.26
2022-11-19T08:28:34.123Z,15.25
2022-11-19T08:31:08.443Z,15.05
2022-11-19T08:33:35.786Z,14.84
2022-11-19T08:36:02.837Z,15.00
2022-11-19T08:38:32.343Z,14.81
2022-11-19T08:41:21.281Z,14.88
2022-11-19T08:43:48.317Z,14.93
2022-11-19T08:46:15.593Z,15.45
2022-11-19T08:48:42.620Z,15.76
2022-11-19T08:51:15.098Z,15.93
2022-11-19T08:53:41.763Z,16.10
2022-11-19T08:56:08.616Z,16.24
2022-11-19T08:58:36.462Z,16.02
2022-11-19T09:01:10.956Z,15.94
2022-11-19T09:03:38.163Z,16.17
2022-11-19T09:06:06.048Z,16.43
2022-11-19T09:08:33.213Z,16.24
2022-11-19T09:11:00.081Z,15.95
2022-11-19T09:13:26.737Z,16.23
2022-11-19T09:15:53.535Z,16.44
2022-11-19T09:18:20.315Z,16.73
2022-11-19T09:20:53.016Z,16.67
2022-11-19T09:23:20.378Z,16.76
2022-11-19T09:26:02.051Z,16.65
2022-11-19T09:28:29.531Z,16.67
2022-11-19T09:31:11.403Z,16.60
2022-11-19T09:33:42.726Z,16.63
2022-11-19T09:36:11.496Z,16.95
2022-11-19T09:38:39.446Z,17.01
2022-11-19T09:41:18.392Z,17.12
2022-11-19T09:44:03.719Z,17.00
2022-11-19T09:46:55.488Z,16.79
2022-11-19T09:49:38.932Z,16.70
2022-11-19T09:52:11.819Z,16.27
2022-11-19T09:54:44.462Z,16.11
2022-11-19T09:57:18.547Z,16.00
2022-11-19T09:59:45.219Z,15.78
2022-11-19T10:02:22.345Z,16.07
2022-11-19T10:04:51.274Z,16.11
2022-11-19T10:07:40.623Z,16.43
2022-11-19T10:10:47.148Z,16.28
2022-11-19T10:13:32.429Z,16.54
2022-11-19T10:16:08.254Z,15.84
2022-11-19T10:18:40.935Z,16.19
2022-11-19T10:21:32.367Z,16.06
2022-11-19T10:24:19.935Z,16.09
2022-11-19T10:27:02.020Z,16.01
2022-11-19T10:29:37.483Z,16.25
2022-11-19T10:32:23.843Z,16.57
2022-11-19T10:34:54.426Z,16.67
2022-11-19T10:37:23.971Z,16.95
2022-11-19T10:40:03.497Z,17.19
2022-11-19T10:42:35.843Z,17.28
2022-11-19T10:45:02.368Z,17.43
2022-11-19T10:47:50.348Z,17.54
2022-11-19T10:50:23.288Z,17.32
2022-11-19T10:53:00.342Z,16.95
2022-11-19T10:55:34.443Z,16.65
2022-11-19T10:58:16.275Z,16.69
2022-11-19T11:00:43.542Z,16.65
2022-11-19T11:03:22.712Z,16.40
2022-11-19T11:06:03.831Z,16.14
2022-11-19T11:08:30.950Z,16.13
2022-11-19T11:10:58.305Z,16.27
2022-11-19T11:13:58.991Z,16.76
2022-11-19T11:16:40.061Z,16.74
2022-11-19T11:19:13.863Z,16.40
2022-11-19T11:21:43.766Z,16.89
2022-11-19T11:24:13.194Z,17.13
2022-11-19T11:26:40.979Z,17.53
2022-11-19T11:29:13.742Z,17.81
2022-11-19T11:31:41.452Z,17.52
2022-11-19T11:34:33.832Z,17.37
2022-11-19T11:37:02.963Z,17.11
2022-11-19T11:39:33.979Z,16.88
2022-11-19T11:42:05.967Z,16.78
2022-11-19T11:44:35.619Z,16.69
2022-11-19T11:47:10.549Z,17.07
2022-11-19T11:49:46.172Z,17.07
2022-11-19T11:52:12.864Z,17.13
2022-11-19T11:54:56.901Z,17.04
2022-11-19T11:57:48.577Z,16.62
2022-11-19T12:00:37.482Z,16.98
2022-11-19T12:03:11.057Z,17.14
2022-11-19T12:05:50.886Z,17.22
2022-11-19T12:08:27.094Z,16.97
2022-11-19T12:11:05.352Z,16.93
2022-11-19T12:13:53.434Z,16.61
2022-11-19T12:16:25.869Z,16.71
2022-11-19T12:19:14.133Z,16.92
2022-11-19T12:21:51.666Z,16.52
2022-11-19T12:24:46.279Z,16.50
2022-11-19T12:27:30.509Z,16.51
2022-11-19T12:30:21.061Z,16.59
2022-11-19T12:33:23.434Z,16.74
2022-11-19T12:36:08.274Z,16.71
2022-11-19T12:38:37.737Z,16.73
2022-11-19T12:41:29.306Z,16.70
2022-11-19T12:43:59.514Z,16.71
2022-11-19T12:46:56.276Z,16.73
2022-11-19T12:49:47.657Z,16.31
2022-11-19T12:52:35.748Z,16.37
2022-11-19T12:55:23.200Z,16.25
2022-11-19T12:58:15.194Z,16.52
2022-11-19T13:01:01.123Z,16.45
2022-11-19T13:03:30.711Z,16.22
2022-11-19T13:06:03.165Z,16.11
2022-11-19T13:08:38.864Z,16.33
2022-11-19T13:11:11.561Z,16.50
2022-11-19T13:13:45.227Z,16.51
2022-11-19T13:16:16.746Z,16.77
2022-11-19T13:18:49.324Z,16.69
2022-11-19T13:21:16.620Z,16.60
2022-11-19T13:23:48.429Z,16.52
2022-11-19T13:26:25.703Z,16.59
2022-11-19T13:29:17.191Z,16.60
2022-11-19T13:31:51.842Z,16.72
2022-11-19T13:34:35.893Z,16.85
2022-11-19T13:37:22.189Z,16.41
2022-11-19T13:39:56.360Z,16.28
2022-11-19T13:42:42.437Z,16.38
2022-11-19T13:45:16.942Z,16.41
2022-11-19T13:47:56.872Z,16.58
2022-11-19T13:50:41.838Z,16.59
2022-11-19T13:53:20.997Z,16.28
2022-11-19T13:55:55.450Z,16.34
2022-11-19T13:58:35.007Z,15.91
2022-11-19T14:01:08.535Z,16.32
2022-11-19T14:03:53.707Z,16.34
2022-11-19T14:06:44.648Z,16.41
2022-11-19T14:09:19.520Z,16.47
2022-11-19T14:11:56.390Z,16.44
2022-11-19T14:14:51.301Z,16.41
2022-11-19T14:17:47.484Z,16.17
2022-11-19T14:21:03.110Z,16.27
2022-11-19T14:24:04.261Z,16.07
2022-11-19T14:26:40.491Z,16.31
2022-11-19T14:29:20.472Z,15.71
2022-11-19T14:32:08.420Z,16.24
2022-11-19T14:34:40.786Z,16.23
2022-11-19T14:37:22.123Z,16.03
2022-11-19T14:40:14.622Z,16.03
2022-11-19T14:43:35.198Z,15.85
2022-11-19T14:46:01.904Z,15.79
2022-11-19T14:48:53.353Z,15.77
2022-11-19T14:51:32.533Z,15.34
2022-11-19T14:54:04.418Z,15.56
2022-11-19T14:56:33.632Z,14.95
2022-11-19T14:59:15.737Z,15.37
2022-11-19T15:01:53.170Z,14.81
2022-11-19T15:04:24.723Z,14.88
2022-11-19T15:06:52.332Z,14.93
2022-11-19T15:09:56.441Z,15.31
2022-11-19T15:12:47.522Z,15.15
2022-11-19T15:15:20.491Z,15.11
2022-11-19T15:18:02.611Z,15.06
2022-11-19T15:20:55.753Z,15.04
2022-11-19T15:23:34.802Z,14.87
2022-11-19T15:26:37.293Z,14.79
2022-11-19T15:29:18.704Z,14.72
2022-11-19T15:32:07.129Z,14.79
2022-11-19T15:35:09.194Z,14.75
2022-11-19T15:37:51.651Z,14.48
2022-11-19T15:40:31.212Z,14.13
2022-11-19T15:43:30.756Z,14.38
2022-11-19T15:46:05.860Z,14.43
2022-11-19T15:48:43.262Z,14.35
2022-11-19T15:51:14.822Z,14.44
2022-11-19T15:54:00.393Z,13.71
2022-11-19T15:56:35.462Z,13.72
2022-11-19T15:59:04.446Z,14.30
2022-11-19T16:01:35.028Z,14.19
2022-11-19T16:04:08.540Z,14.19
2022-11-19T16:06:37.468Z,14.21
2022-11-19T16:09:07.339Z,14.29
2022-11-19T16:11:56.021Z,14.26
2022-11-19T16:14:48.193Z,14.22
2022-11-19T16:17:43.259Z,14.27
2022-11-19T16:20:10.530Z,14.14
2022-11-19T16:22:54.325Z,14.14
2022-11-19T16:25:34.980Z,13.98
2022-11-19T16:28:35.807Z,13.72
2022-11-19T16:31:05.054Z,13.69
2022-11-19T16:33:34.064Z,13.58
2022-11-19T16:36:17.326Z,13.76
2022-11-19T16:38:47.897Z,13.62
2022-11-19T16:41:35.981Z,13.55
2022-11-19T16:44:11.274Z,13.46
2022-11-19T16:46:38.521Z,13.63
2022-11-19T16:49:14.336Z,13.02
2022-11-19T16:51:50.072Z,13.54
2022-11-19T16:54:50.083Z,13.46
2022-11-19T16:57:20.673Z,13.29
2022-11-19T16:59:52.687Z,13.18
2022-11-19T17:02:22.450Z,12.99
2022-11-19T17:04:53.546Z,12.84
2022-11-19T17:07:29.846Z,13.01
2022-11-19T17:10:09.086Z,12.85
2022-11-19T17:12:37.675Z,12.84
2022-11-19T17:15:34.613Z,12.83
2022-11-19T17:18:10.490Z,12.79
2022-11-19T17:20:37.218Z,12.59
2022-11-19T17:23:19.605Z,12.67
2022-11-19T17:25:58.667Z,12.59
2022-11-19T17:28:30.893Z,12.73
2022-11-19T17:30:58.982Z,12.74
2022-11-19T17:33:25.866Z,12.59
2022-11-19T17:35:52.629Z,12.65
2022-11-19T17:38:27.902Z,12.49
2022-11-19T17:40:57.291Z,12.61
2022-11-19T17:43:49.073Z,12.17
2022-11-19T17:46:16.104Z,12.60
2022-11-19T17:48:45.216Z,12.61
2022-11-19T17:51:13.439Z,12.67
2022-11-19T17:53:40.608Z,12.68
2022-11-19T17:56:18.304Z,12.73
2022-11-19T17:58:45.315Z,12.52
2022-11-19T18:01:12.356Z,12.86
2022-11-19T18:03:39.366Z,12.85
2022-11-19T18:06:08.224Z,12.59
2022-11-19T18:08:37.264Z,12.84
2022-11-19T18:11:05.415Z,12.62
2022-11-19T18:13:36.549Z,12.29
2022-11-19T18:16:15.092Z,12.22
2022-11-19T18:18:41.739Z,11.96
2022-11-19T18:21:13.335Z,12.17
2022-11-19T18:23:41.345Z,12.13
2022-11-19T18:26:13.373Z,12.18
2022-11-19T18:28:44.972Z,12.06
2022-11-19T18:31:26.794Z,11.98
2022-11-19T18:33:55.787Z,11.96
2022-11-19T18:36:24.268Z,11.98
2022-11-19T18:38:52.909Z,12.04
2022-11-19T18:41:20.088Z,11.94
2022-11-19T18:44:06.243Z,12.09
2022-11-19T18:46:33.304Z,11.83
2022-11-19T18:49:00.339Z,11.87
2022-11-19T18:51:30.543Z,11.82
2022-11-19T18:53:58.267Z,11.90
2022-11-19T18:56:25.258Z,12.08
2022-11-19T18:58:52.534Z,12.05
2022-11-19T19:01:19.596Z,11.92
2022-11-19T19:03:46.445Z,12.02
2022-11-19T19:06:13.433Z,12.10
2022-11-19T19:08:40.650Z,12.01
2022-11-19T19:11:27.088Z,12.02
2022-11-19T19:13:54.141Z,12.06
2022-11-19T19:16:21.577Z,11.73
2022-11-19T19:18:48.456Z,12.03
2022-11-19T19:21:17.134Z,12.00
2022-11-19T19:23:44.112Z,12.16
2022-11-19T19:26:13.053Z,12.02
2022-11-19T19:28:40.357Z,12.29
2022-11-19T19:31:07.984Z,12.19
2022-11-19T19:33:35.282Z,12.23
2022-11-19T19:36:05.809Z,12.27
2022-11-19T19:38:33.408Z,12.29
2022-11-19T19:41:27.337Z,12.12
2022-11-19T19:43:56.163Z,12.22
2022-11-19T19:46:24.079Z,12.22
2022-11-19T19:48:53.721Z,12.40
2022-11-19T19:51:22.385Z,12.40
2022-11-19T19:53:50.088Z,12.20
2022-11-19T19:56:19.631Z,12.12
2022-11-19T19:58:47.972Z,12.17
2022-11-19T20:01:18.156Z,12.31
2022-11-19T20:03:46.597Z,12.20
2022-11-19T20:06:17.838Z,12.27
2022-11-19T20:08:45.486Z,12.22
2022-11-19T20:11:24.874Z,12.46
2022-11-19T20:13:54.664Z,12.38
2022-11-19T20:16:26.693Z,12.57
2022-11-19T20:18:55.412Z,12.51
2022-11-19T20:21:28.469Z,12.51
2022-11-19T20:23:55.691Z,12.41
2022-11-19T20:26:24.824Z,12.34
2022-11-19T20:28:57.063Z,12.23
2022-11-19T20:31:24.169Z,12.22
2022-11-19T20:33:53.539Z,12.10
2022-11-19T20:36:20.556Z,12.05
2022-11-19T20:38:47.627Z,12.01
2022-11-19T20:41:35.090Z,12.06
2022-11-19T20:44:22.013Z,12.18
2022-11-19T20:46:52.059Z,12.19
2022-11-19T20:49:21.050Z,12.14
2022-11-19T20:51:48.345Z,11.95
2022-11-19T20:54:15.929Z,11.93
2022-11-19T20:56:43.052Z,11.90
2022-11-19T20:59:10.519Z,11.68
2022-11-19T21:01:38.115Z,11.45
2022-11-19T21:04:05.488Z,11.72
2022-11-19T21:06:32.587Z,11.56
2022-11-19T21:08:59.274Z,11.93
2022-11-19T21:11:26.284Z,11.83
2022-11-19T21:13:53.329Z,11.88
2022-11-19T21:16:22.961Z,11.78
2022-11-19T21:18:50.405Z,11.79
2022-11-19T21:21:18.905Z,11.86
2022-11-19T21:23:45.726Z,11.55
2022-11-19T21:26:21.926Z,11.58
2022-11-19T21:28:52.201Z,11.87
2022-11-19T21:31:22.036Z,11.91
2022-11-19T21:33:49.130Z,11.78
2022-11-19T21:36:15.928Z,12.15
2022-11-19T21:38:42.844Z,11.97
2022-11-19T21:41:09.576Z,11.96
2022-11-19T21:43:37.468Z,12.15
2022-11-19T21:46:07.261Z,12.08
2022-11-19T21:48:34.189Z,12.19
2022-11-19T21:51:06.329Z,12.17
2022-11-19T21:53:33.921Z,12.13
2022-11-19T21:56:01.029Z,12.25
2022-11-19T21:58:27.818Z,12.30
2022-11-19T22:01:02.729Z,12.53
2022-11-19T22:03:32.694Z,12.51
2022-11-19T22:06:03.955Z,12.75
2022-11-19T22:08:32.426Z,12.52
2022-11-19T22:10:59.696Z,12.78
2022-11-19T22:13:26.817Z,12.73
2022-11-19T22:16:02.590Z,12.82
2022-11-19T22:18:29.273Z,12.90
2022-11-19T22:21:03.011Z,12.81
2022-11-19T22:23:30.217Z,12.89
2022-11-19T22:25:57.384Z,12.85
2022-11-19T22:28:24.143Z,13.09
2022-11-19T22:30:55.011Z,13.22
2022-11-19T22:33:21.740Z,13.31
2022-11-19T22:35:48.692Z,13.68
2022-11-19T22:38:15.837Z,14.10
2022-11-19T22:40:42.479Z,13.93
2022-11-19T22:43:09.510Z,13.83
2022-11-19T22:45:36.553Z,13.88
2022-11-19T22:48:03.366Z,13.64
2022-11-19T22:50:30.174Z,13.76
2022-11-19T22:52:57.119Z,14.20
2022-11-19T22:55:23.735Z,14.26
2022-11-19T22:57:50.392Z,14.36
2022-11-19T23:00:40.389Z,15.09
2022-11-19T23:03:07.412Z,15.14
2022-11-19T23:05:37.225Z,15.12
2022-11-19T23:08:06.196Z,15.14
2022-11-19T23:10:33.815Z,15.02
2022-11-19T23:13:20.373Z,15.31
2022-11-19T23:16:09.641Z,15.65
2022-11-19T23:19:00.963Z,16.33
2022-11-19T23:21:28.940Z,16.65
2022-11-19T23:23:57.104Z,16.70
2022-11-19T23:26:26.312Z,16.79
2022-11-19T23:28:54.078Z,17.08
2022-11-19T23:31:26.471Z,17.13
2022-11-19T23:33:58.771Z,17.13
2022-11-19T23:36:29.327Z,17.11
2022-11-19T23:38:56.135Z,17.20
2022-11-19T23:41:23.035Z,17.27
2022-11-19T23:43:52.471Z,17.31
2022-11-19T23:46:22.753Z,17.34
2022-11-19T23:48:51.166Z,17.36
2022-11-19T23:51:22.175Z,17.48
2022-11-19T23:53:49.464Z,17.33
2022-11-19T23:56:19.507Z,17.53
2022-11-19T23:58:46.382Z,17.55
